sensor_id;sensor_type;location;lat;lon;timestamp;temperature;humidity
1812;DHT22;904;47.814;11.134;2022-12-07T00:01:44;4.70;93.70
1812;DHT22;904;47.814;11.134;2022-12-07T00:04:12;4.70;93.60
1812;DHT22;904;47.814;11.134;2022-12-07T00:06:42;4.70;93.60
1812;DHT22;904;47.814;11.134;2022-12-07T00:09:11;4.70;93.60
1812;DHT22;904;47.814;11.134;2022-12-07T00:11:39;4.70;93.70
1812;DHT22;904;47.814;11.134;2022-12-07T00:14:08;4.70;93.50
1812;DHT22;904;47.814;11.134;2022-12-07T00:16:42;4.60;93.50
1812;DHT22;904;47.814;11.134;2022-12-07T00:19:11;4.70;93.50
1812;DHT22;904;47.814;11.134;2022-12-07T00:21:40;4.60;93.40
1812;DHT22;904;47.814;11.134;2022-12-07T00:24:07;4.60;93.50
1812;DHT22;904;47.814;11.134;2022-12-07T00:26:41;4.60;93.60
1812;DHT22;904;47.814;11.134;2022-12-07T00:29:13;4.60;93.60
1812;DHT22;904;47.814;11.134;2022-12-07T00:31:51;4.60;93.50
1812;DHT22;904;47.814;11.134;2022-12-07T00:34:20;4.60;93.40
1812;DHT22;904;47.814;11.134;2022-12-07T00:36:48;4.60;93.30
1812;DHT22;904;47.814;11.134;2022-12-07T00:39:19;4.60;93.40
1812;DHT22;904;47.814;11.134;2022-12-07T00:41:47;4.60;93.40
1812;DHT22;904;47.814;11.134;2022-12-07T00:44:16;4.60;93.40
1812;DHT22;904;47.814;11.134;2022-12-07T00:46:43;4.60;93.30
1812;DHT22;904;47.814;11.134;2022-12-07T00:49:15;4.60;93.40
1812;DHT22;904;47.814;11.134;2022-12-07T00:51:42;4.50;93.60
1812;DHT22;904;47.814;11.134;2022-12-07T00:54:10;4.50;93.70
1812;DHT22;904;47.814;11.134;2022-12-07T00:56:41;4.50;93.80
1812;DHT22;904;47.814;11.134;2022-12-07T00:59:12;4.50;93.90
1812;DHT22;904;47.814;11.134;2022-12-07T01:01:40;4.50;93.90
1812;DHT22;904;47.814;11.134;2022-12-07T01:04:17;4.50;93.80
1812;DHT22;904;47.814;11.134;2022-12-07T01:06:45;4.50;93.90
1812;DHT22;904;47.814;11.134;2022-12-07T01:09:14;4.50;94.00
1812;DHT22;904;47.814;11.134;2022-12-07T01:11:42;4.50;94.00
1812;DHT22;904;47.814;11.134;2022-12-07T01:14:09;4.50;94.00
1812;DHT22;904;47.814;11.134;2022-12-07T01:16:38;4.60;94.00
1812;DHT22;904;47.814;11.134;2022-12-07T01:19:07;4.60;94.10
1812;DHT22;904;47.814;11.134;2022-12-07T01:21:51;4.50;94.10
1812;DHT22;904;47.814;11.134;2022-12-07T01:24:23;4.50;94.10
1812;DHT22;904;47.814;11.134;2022-12-07T01:26:50;4.40;94.10
1812;DHT22;904;47.814;11.134;2022-12-07T01:29:26;4.40;94.30
1812;DHT22;904;47.814;11.134;2022-12-07T01:31:58;4.50;94.30
1812;DHT22;904;47.814;11.134;2022-12-07T01:34:31;4.50;94.30
1812;DHT22;904;47.814;11.134;2022-12-07T01:36:59;4.50;94.20
1812;DHT22;904;47.814;11.134;2022-12-07T01:39:28;4.60;94.20
1812;DHT22;904;47.814;11.134;2022-12-07T01:41:56;4.60;94.20
1812;DHT22;904;47.814;11.134;2022-12-07T01:44:24;4.60;94.10
1812;DHT22;904;47.814;11.134;2022-12-07T01:46:52;4.60;93.90
1812;DHT22;904;47.814;11.134;2022-12-07T01:49:31;4.70;93.90
1812;DHT22;904;47.814;11.134;2022-12-07T01:52:05;4.60;93.90
1812;DHT22;904;47.814;11.134;2022-12-07T01:54:36;4.70;93.90
1812;DHT22;904;47.814;11.134;2022-12-07T01:57:10;4.70;93.80
1812;DHT22;904;47.814;11.134;2022-12-07T01:59:38;4.70;93.80
1812;DHT22;904;47.814;11.134;2022-12-07T02:02:13;4.70;93.90
1812;DHT22;904;47.814;11.134;2022-12-07T02:04:43;4.60;93.80
1812;DHT22;904;47.814;11.134;2022-12-07T02:07:12;4.60;93.90
1812;DHT22;904;47.814;11.134;2022-12-07T02:09:45;4.60;93.90
1812;DHT22;904;47.814;11.134;2022-12-07T02:12:13;4.60;93.80
1812;DHT22;904;47.814;11.134;2022-12-07T02:14:45;4.50;93.80
1812;DHT22;904;47.814;11.134;2022-12-07T02:17:23;4.40;93.90
1812;DHT22;904;47.814;11.134;2022-12-07T02:20:16;4.40;94.10
1812;DHT22;904;47.814;11.134;2022-12-07T02:23:17;4.50;94.30
1812;DHT22;904;47.814;11.134;2022-12-07T02:26:03;4.50;94.20
1812;DHT22;904;47.814;11.134;2022-12-07T02:28:51;4.50;94.10
1812;DHT22;904;47.814;11.134;2022-12-07T02:31:21;4.50;94.00
1812;DHT22;904;47.814;11.134;2022-12-07T02:33:54;4.50;94.10
1812;DHT22;904;47.814;11.134;2022-12-07T02:36:32;4.50;94.10
1812;DHT22;904;47.814;11.134;2022-12-07T02:39:07;4.50;94.10
1812;DHT22;904;47.814;11.134;2022-12-07T02:41:41;4.50;94.00
1812;DHT22;904;47.814;11.134;2022-12-07T02:44:14;4.50;94.10
1812;DHT22;904;47.814;11.134;2022-12-07T02:46:48;4.50;94.10
1812;DHT22;904;47.814;11.134;2022-12-07T02:49:18;4.50;94.10
1812;DHT22;904;47.814;11.134;2022-12-07T02:51:47;4.60;94.00
1812;DHT22;904;47.814;11.134;2022-12-07T02:54:19;4.60;94.10
1812;DHT22;904;47.814;11.134;2022-12-07T02:56:49;4.60;94.10
1812;DHT22;904;47.814;11.134;2022-12-07T02:59:29;4.50;94.10
1812;DHT22;904;47.814;11.134;2022-12-07T03:02:12;4.60;94.20
1812;DHT22;904;47.814;11.134;2022-12-07T03:04:49;4.60;94.20
1812;DHT22;904;47.814;11.134;2022-12-07T03:07:26;4.60;94.30
1812;DHT22;904;47.814;11.134;2022-12-07T03:10:00;4.60;94.40
1812;DHT22;904;47.814;11.134;2022-12-07T03:12:32;4.60;94.40
1812;DHT22;904;47.814;11.134;2022-12-07T03:15:07;4.60;94.50
1812;DHT22;904;47.814;11.134;2022-12-07T03:17:37;4.60;94.40
1812;DHT22;904;47.814;11.134;2022-12-07T03:20:11;4.60;94.40
1812;DHT22;904;47.814;11.134;2022-12-07T03:22:47;4.60;94.40
1812;DHT22;904;47.814;11.134;2022-12-07T03:25:16;4.60;94.40
1812;DHT22;904;47.814;11.134;2022-12-07T03:27:47;4.60;94.30
1812;DHT22;904;47.814;11.134;2022-12-07T03:30:20;4.60;94.30
1812;DHT22;904;47.814;11.134;2022-12-07T03:32:52;4.60;94.30
1812;DHT22;904;47.814;11.134;2022-12-07T03:35:24;4.60;94.30
1812;DHT22;904;47.814;11.134;2022-12-07T03:37:54;4.60;94.30
1812;DHT22;904;47.814;11.134;2022-12-07T03:40:28;4.60;94.30
1812;DHT22;904;47.814;11.134;2022-12-07T03:43:01;4.60;94.30
1812;DHT22;904;47.814;11.134;2022-12-07T03:45:34;4.60;94.20
1812;DHT22;904;47.814;11.134;2022-12-07T03:48:17;4.60;94.30
1812;DHT22;904;47.814;11.134;2022-12-07T03:50:58;4.60;94.40
1812;DHT22;904;47.814;11.134;2022-12-07T03:53:43;4.60;94.50
1812;DHT22;904;47.814;11.134;2022-12-07T03:56:30;4.60;94.50
1812;DHT22;904;47.814;11.134;2022-12-07T03:58:59;4.60;94.40
1812;DHT22;904;47.814;11.134;2022-12-07T04:01:27;4.50;94.50
1812;DHT22;904;47.814;11.134;2022-12-07T04:03:55;4.40;94.70
1812;DHT22;904;47.814;11.134;2022-12-07T04:06:31;4.40;94.80
1812;DHT22;904;47.814;11.134;2022-12-07T04:09:00;4.50;95.00
1812;DHT22;904;47.814;11.134;2022-12-07T04:11:29;4.40;95.00
1812;DHT22;904;47.814;11.134;2022-12-07T04:13:56;4.40;95.10
1812;DHT22;904;47.814;11.134;2022-12-07T04:16:42;4.50;95.30
1812;DHT22;904;47.814;11.134;2022-12-07T04:19:18;4.50;95.40
1812;DHT22;904;47.814;11.134;2022-12-07T04:21:51;4.40;95.40
1812;DHT22;904;47.814;11.134;2022-12-07T04:24:22;4.40;95.70
1812;DHT22;904;47.814;11.134;2022-12-07T04:26:51;4.40;95.80
1812;DHT22;904;47.814;11.134;2022-12-07T04:29:19;4.40;95.90
1812;DHT22;904;47.814;11.134;2022-12-07T04:31:49;4.40;95.80
1812;DHT22;904;47.814;11.134;2022-12-07T04:34:17;4.40;95.80
1812;DHT22;904;47.814;11.134;2022-12-07T04:36:44;4.40;95.80
1812;DHT22;904;47.814;11.134;2022-12-07T04:39:19;4.40;95.90
1812;DHT22;904;47.814;11.134;2022-12-07T04:41:58;4.40;96.00
1812;DHT22;904;47.814;11.134;2022-12-07T04:44:31;4.40;95.60
1812;DHT22;904;47.814;11.134;2022-12-07T04:46:59;4.40;95.50
1812;DHT22;904;47.814;11.134;2022-12-07T04:49:26;4.40;95.70
1812;DHT22;904;47.814;11.134;2022-12-07T04:51:54;4.40;95.90
1812;DHT22;904;47.814;11.134;2022-12-07T04:54:21;4.40;96.00
1812;DHT22;904;47.814;11.134;2022-12-07T04:56:48;4.40;96.00
1812;DHT22;904;47.814;11.134;2022-12-07T04:59:16;4.40;96.00
1812;DHT22;904;47.814;11.134;2022-12-07T05:01:44;4.40;95.90
1812;DHT22;904;47.814;11.134;2022-12-07T05:04:13;4.40;95.90
1812;DHT22;904;47.814;11.134;2022-12-07T05:06:41;4.40;95.90
1812;DHT22;904;47.814;11.134;2022-12-07T05:09:09;4.50;96.00
1812;DHT22;904;47.814;11.134;2022-12-07T05:11:36;4.50;95.90
1812;DHT22;904;47.814;11.134;2022-12-07T05:14:13;4.50;95.90
1812;DHT22;904;47.814;11.134;2022-12-07T05:16:41;4.50;95.90
1812;DHT22;904;47.814;11.134;2022-12-07T05:19:09;4.50;95.90
1812;DHT22;904;47.814;11.134;2022-12-07T05:21:38;4.50;96.30
1812;DHT22;904;47.814;11.134;2022-12-07T05:24:06;4.60;96.00
1812;DHT22;904;47.814;11.134;2022-12-07T05:26:34;4.60;96.10
1812;DHT22;904;47.814;11.134;2022-12-07T05:29:01;4.60;96.10
1812;DHT22;904;47.814;11.134;2022-12-07T05:31:29;4.60;96.10
1812;DHT22;904;47.814;11.134;2022-12-07T05:33:58;4.60;96.10
1812;DHT22;904;47.814;11.134;2022-12-07T05:36:27;4.60;96.10
1812;DHT22;904;47.814;11.134;2022-12-07T05:38:58;4.60;96.10
1812;DHT22;904;47.814;11.134;2022-12-07T05:41:25;4.60;96.10
1812;DHT22;904;47.814;11.134;2022-12-07T05:44:10;4.60;96.10
1812;DHT22;904;47.814;11.134;2022-12-07T05:46:39;4.60;96.20
1812;DHT22;904;47.814;11.134;2022-12-07T05:49:06;4.60;96.20
1812;DHT22;904;47.814;11.134;2022-12-07T05:51:34;4.60;96.60
1812;DHT22;904;47.814;11.134;2022-12-07T05:54:02;4.60;96.20
1812;DHT22;904;47.814;11.134;2022-12-07T05:56:29;4.60;96.50
1812;DHT22;904;47.814;11.134;2022-12-07T05:58:56;4.60;96.20
1812;DHT22;904;47.814;11.134;2022-12-07T06:01:41;4.60;96.20
1812;DHT22;904;47.814;11.134;2022-12-07T06:04:08;4.60;96.20
1812;DHT22;904;47.814;11.134;2022-12-07T06:06:35;4.60;96.30
1812;DHT22;904;47.814;11.134;2022-12-07T06:09:04;4.60;96.20
1812;DHT22;904;47.814;11.134;2022-12-07T06:11:31;4.60;96.20
1812;DHT22;904;47.814;11.134;2022-12-07T06:14:16;4.60;96.20
1812;DHT22;904;47.814;11.134;2022-12-07T06:16:43;4.60;96.10
1812;DHT22;904;47.814;11.134;2022-12-07T06:19:10;4.60;96.30
1812;DHT22;904;47.814;11.134;2022-12-07T06:21:37;4.50;96.20
1812;DHT22;904;47.814;11.134;2022-12-07T06:24:06;4.50;96.20
1812;DHT22;904;47.814;11.134;2022-12-07T06:26:34;4.50;96.10
1812;DHT22;904;47.814;11.134;2022-12-07T06:29:00;4.60;96.10
1812;DHT22;904;47.814;11.134;2022-12-07T06:31:27;4.50;96.00
1812;DHT22;904;47.814;11.134;2022-12-07T06:33:57;4.50;95.90
1812;DHT22;904;47.814;11.134;2022-12-07T06:36:25;4.60;96.00
1812;DHT22;904;47.814;11.134;2022-12-07T06:38:52;4.50;95.90
1812;DHT22;904;47.814;11.134;2022-12-07T06:41:20;4.50;95.80
1812;DHT22;904;47.814;11.134;2022-12-07T06:43:47;4.50;95.70
1812;DHT22;904;47.814;11.134;2022-12-07T06:46:15;4.50;95.80
1812;DHT22;904;47.814;11.134;2022-12-07T06:48:43;4.50;95.90
1812;DHT22;904;47.814;11.134;2022-12-07T06:51:10;4.50;96.00
1812;DHT22;904;47.814;11.134;2022-12-07T06:53:37;4.40;95.90
1812;DHT22;904;47.814;11.134;2022-12-07T06:56:05;4.40;95.90
1812;DHT22;904;47.814;11.134;2022-12-07T06:58:34;4.40;95.90
1812;DHT22;904;47.814;11.134;2022-12-07T07:01:01;4.40;95.90
1812;DHT22;904;47.814;11.134;2022-12-07T07:03:32;4.40;95.90
1812;DHT22;904;47.814;11.134;2022-12-07T07:05:59;4.40;95.80
1812;DHT22;904;47.814;11.134;2022-12-07T07:08:26;4.40;95.60
1812;DHT22;904;47.814;11.134;2022-12-07T07:10:53;4.40;95.60
1812;DHT22;904;47.814;11.134;2022-12-07T07:13:19;4.40;95.60
1812;DHT22;904;47.814;11.134;2022-12-07T07:15:48;4.40;95.70
1812;DHT22;904;47.814;11.134;2022-12-07T07:18:15;4.30;95.50
1812;DHT22;904;47.814;11.134;2022-12-07T07:20:42;4.30;95.70
1812;DHT22;904;47.814;11.134;2022-12-07T07:23:09;4.30;95.60
1812;DHT22;904;47.814;11.134;2022-12-07T07:25:36;4.30;95.60
1812;DHT22;904;47.814;11.134;2022-12-07T07:28:04;4.30;95.60
1812;DHT22;904;47.814;11.134;2022-12-07T07:30:31;4.20;95.50
1812;DHT22;904;47.814;11.134;2022-12-07T07:33:00;4.20;95.60
1812;DHT22;904;47.814;11.134;2022-12-07T07:35:29;4.20;96.00
1812;DHT22;904;47.814;11.134;2022-12-07T07:37:59;4.20;95.70
1812;DHT22;904;47.814;11.134;2022-12-07T07:40:27;4.20;95.50
1812;DHT22;904;47.814;11.134;2022-12-07T07:42:55;4.20;95.30
1812;DHT22;904;47.814;11.134;2022-12-07T07:45:29;4.30;95.50
1812;DHT22;904;47.814;11.134;2022-12-07T07:47:56;4.30;95.00
1812;DHT22;904;47.814;11.134;2022-12-07T07:50:24;4.30;95.30
1812;DHT22;904;47.814;11.134;2022-12-07T07:52:51;4.30;95.50
1812;DHT22;904;47.814;11.134;2022-12-07T07:55:24;4.30;95.60
1812;DHT22;904;47.814;11.134;2022-12-07T07:57:54;4.20;95.80
1812;DHT22;904;47.814;11.134;2022-12-07T08:00:23;4.20;95.80
1812;DHT22;904;47.814;11.134;2022-12-07T08:02:51;4.30;95.70
1812;DHT22;904;47.814;11.134;2022-12-07T08:05:18;4.20;95.50
1812;DHT22;904;47.814;11.134;2022-12-07T08:07:46;4.20;95.80
1812;DHT22;904;47.814;11.134;2022-12-07T08:10:16;4.20;95.70
1812;DHT22;904;47.814;11.134;2022-12-07T08:12:45;4.30;95.90
1812;DHT22;904;47.814;11.134;2022-12-07T08:15:27;4.30;96.10
1812;DHT22;904;47.814;11.134;2022-12-07T08:17:54;4.30;96.10
1812;DHT22;904;47.814;11.134;2022-12-07T08:20:22;4.30;95.90
1812;DHT22;904;47.814;11.134;2022-12-07T08:22:50;4.20;95.80
1812;DHT22;904;47.814;11.134;2022-12-07T08:25:23;4.20;95.80
1812;DHT22;904;47.814;11.134;2022-12-07T08:27:51;4.10;95.80
1812;DHT22;904;47.814;11.134;2022-12-07T08:30:19;4.10;96.00
1812;DHT22;904;47.814;11.134;2022-12-07T08:32:46;4.10;96.00
1812;DHT22;904;47.814;11.134;2022-12-07T08:35:15;4.20;95.90
1812;DHT22;904;47.814;11.134;2022-12-07T08:37:42;4.20;95.90
1812;DHT22;904;47.814;11.134;2022-12-07T08:40:12;4.20;95.90
1812;DHT22;904;47.814;11.134;2022-12-07T08:42:41;4.20;95.70
1812;DHT22;904;47.814;11.134;2022-12-07T08:45:12;4.20;95.50
1812;DHT22;904;47.814;11.134;2022-12-07T08:47:42;4.20;95.30
1812;DHT22;904;47.814;11.134;2022-12-07T08:50:11;4.10;95.50
1812;DHT22;904;47.814;11.134;2022-12-07T08:52:40;4.00;96.00
1812;DHT22;904;47.814;11.134;2022-12-07T08:55:11;4.00;96.10
1812;DHT22;904;47.814;11.134;2022-12-07T08:57:39;4.00;96.20
1812;DHT22;904;47.814;11.134;2022-12-07T09:00:07;4.00;96.60
1812;DHT22;904;47.814;11.134;2022-12-07T09:02:34;4.00;96.50
1812;DHT22;904;47.814;11.134;2022-12-07T09:05:02;4.00;96.40
1812;DHT22;904;47.814;11.134;2022-12-07T09:07:33;3.90;96.40
1812;DHT22;904;47.814;11.134;2022-12-07T09:10:00;3.90;97.00
1812;DHT22;904;47.814;11.134;2022-12-07T09:12:29;4.00;96.70
1812;DHT22;904;47.814;11.134;2022-12-07T09:14:56;4.10;97.00
1812;DHT22;904;47.814;11.134;2022-12-07T09:17:23;4.20;97.00
1812;DHT22;904;47.814;11.134;2022-12-07T09:19:50;4.20;96.40
1812;DHT22;904;47.814;11.134;2022-12-07T09:22:17;4.20;96.40
1812;DHT22;904;47.814;11.134;2022-12-07T09:24:44;4.20;96.20
1812;DHT22;904;47.814;11.134;2022-12-07T09:27:12;4.20;96.70
1812;DHT22;904;47.814;11.134;2022-12-07T09:29:41;4.20;96.80
1812;DHT22;904;47.814;11.134;2022-12-07T09:32:09;4.30;96.70
1812;DHT22;904;47.814;11.134;2022-12-07T09:34:36;4.30;97.00
1812;DHT22;904;47.814;11.134;2022-12-07T09:37:03;4.30;97.10
1812;DHT22;904;47.814;11.134;2022-12-07T09:39:30;4.40;96.80
1812;DHT22;904;47.814;11.134;2022-12-07T09:41:58;4.40;96.70
1812;DHT22;904;47.814;11.134;2022-12-07T09:44:26;4.40;96.90
1812;DHT22;904;47.814;11.134;2022-12-07T09:46:56;4.30;96.40
1812;DHT22;904;47.814;11.134;2022-12-07T09:49:29;4.30;96.20
1812;DHT22;904;47.814;11.134;2022-12-07T09:52:16;4.30;96.30
1812;DHT22;904;47.814;11.134;2022-12-07T09:54:47;4.30;96.60
1812;DHT22;904;47.814;11.134;2022-12-07T09:57:15;4.30;97.10
1812;DHT22;904;47.814;11.134;2022-12-07T09:59:42;4.40;97.10
1812;DHT22;904;47.814;11.134;2022-12-07T10:02:28;4.40;96.70
1812;DHT22;904;47.814;11.134;2022-12-07T10:05:03;4.40;97.00
1812;DHT22;904;47.814;11.134;2022-12-07T10:07:43;4.50;97.00
1812;DHT22;904;47.814;11.134;2022-12-07T10:10:23;4.50;96.80
1812;DHT22;904;47.814;11.134;2022-12-07T10:12:57;4.50;96.70
1812;DHT22;904;47.814;11.134;2022-12-07T10:15:41;4.60;96.90
1812;DHT22;904;47.814;11.134;2022-12-07T10:18:29;4.50;96.10
1812;DHT22;904;47.814;11.134;2022-12-07T10:21:11;4.40;96.20
1812;DHT22;904;47.814;11.134;2022-12-07T10:23:40;4.40;96.30
1812;DHT22;904;47.814;11.134;2022-12-07T10:26:32;4.10;96.50
1812;DHT22;904;47.814;11.134;2022-12-07T10:29:01;4.20;97.00
1812;DHT22;904;47.814;11.134;2022-12-07T10:31:30;4.30;96.90
1812;DHT22;904;47.814;11.134;2022-12-07T10:34:00;4.40;97.00
1812;DHT22;904;47.814;11.134;2022-12-07T10:36:35;4.50;97.00
1812;DHT22;904;47.814;11.134;2022-12-07T10:39:10;4.50;96.10
1812;DHT22;904;47.814;11.134;2022-12-07T10:41:53;4.40;96.40
1812;DHT22;904;47.814;11.134;2022-12-07T10:44:22;4.40;97.00
1812;DHT22;904;47.814;11.134;2022-12-07T10:47:04;4.40;96.80
1812;DHT22;904;47.814;11.134;2022-12-07T10:53:13;4.40;97.20
1812;DHT22;904;47.814;11.134;2022-12-07T10:56:07;4.30;97.00
1812;DHT22;904;47.814;11.134;2022-12-07T10:58:50;4.40;97.30
1812;DHT22;904;47.814;11.134;2022-12-07T11:01:24;4.40;97.00
1812;DHT22;904;47.814;11.134;2022-12-07T11:04:24;4.30;96.80
1812;DHT22;904;47.814;11.134;2022-12-07T11:07:03;4.30;97.00
1812;DHT22;904;47.814;11.134;2022-12-07T11:09:59;4.20;97.20
1812;DHT22;904;47.814;11.134;2022-12-07T11:12:38;4.10;97.70
1812;DHT22;904;47.814;11.134;2022-12-07T11:15:15;4.20;97.80
1812;DHT22;904;47.814;11.134;2022-12-07T11:17:49;4.20;97.60
1812;DHT22;904;47.814;11.134;2022-12-07T11:20:29;4.30;97.70
1812;DHT22;904;47.814;11.134;2022-12-07T11:23:06;4.30;97.50
1812;DHT22;904;47.814;11.134;2022-12-07T11:25:42;4.20;97.00
1812;DHT22;904;47.814;11.134;2022-12-07T11:28:23;4.20;97.40
1812;DHT22;904;47.814;11.134;2022-12-07T11:30:59;4.30;97.30
1812;DHT22;904;47.814;11.134;2022-12-07T11:33:35;4.40;97.00
1812;DHT22;904;47.814;11.134;2022-12-07T11:36:16;4.60;96.80
1812;DHT22;904;47.814;11.134;2022-12-07T11:38:49;4.50;96.60
1812;DHT22;904;47.814;11.134;2022-12-07T11:41:20;4.60;96.50
1812;DHT22;904;47.814;11.134;2022-12-07T11:43:58;4.60;96.30
1812;DHT22;904;47.814;11.134;2022-12-07T11:46:35;4.70;96.40
1812;DHT22;904;47.814;11.134;2022-12-07T11:49:15;4.80;96.00
1812;DHT22;904;47.814;11.134;2022-12-07T11:51:46;4.80;95.60
1812;DHT22;904;47.814;11.134;2022-12-07T11:54:18;4.90;95.30
1812;DHT22;904;47.814;11.134;2022-12-07T11:56:50;4.80;94.60
1812;DHT22;904;47.814;11.134;2022-12-07T11:59:22;4.70;94.60
1812;DHT22;904;47.814;11.134;2022-12-07T12:01:55;4.80;95.00
1812;DHT22;904;47.814;11.134;2022-12-07T12:04:40;4.80;95.40
1812;DHT22;904;47.814;11.134;2022-12-07T12:07:16;4.80;94.50
1812;DHT22;904;47.814;11.134;2022-12-07T12:09:49;4.70;94.60
1812;DHT22;904;47.814;11.134;2022-12-07T12:12:44;4.70;94.80
1812;DHT22;904;47.814;11.134;2022-12-07T12:15:36;4.70;94.40
1812;DHT22;904;47.814;11.134;2022-12-07T12:18:22;4.70;94.80
1812;DHT22;904;47.814;11.134;2022-12-07T12:20:54;4.80;94.50
1812;DHT22;904;47.814;11.134;2022-12-07T12:23:26;4.90;94.30
1812;DHT22;904;47.814;11.134;2022-12-07T12:25:57;5.00;94.50
1812;DHT22;904;47.814;11.134;2022-12-07T12:28:29;5.10;94.10
1812;DHT22;904;47.814;11.134;2022-12-07T12:31:13;5.10;94.00
1812;DHT22;904;47.814;11.134;2022-12-07T12:33:44;5.20;93.60
1812;DHT22;904;47.814;11.134;2022-12-07T12:36:23;5.30;93.60
1812;DHT22;904;47.814;11.134;2022-12-07T12:39:07;5.30;93.00
1812;DHT22;904;47.814;11.134;2022-12-07T12:41:58;5.30;92.70
1812;DHT22;904;47.814;11.134;2022-12-07T12:45:16;5.30;92.00
1812;DHT22;904;47.814;11.134;2022-12-07T12:47:56;5.30;92.00
1812;DHT22;904;47.814;11.134;2022-12-07T12:50:26;5.60;92.90
1812;DHT22;904;47.814;11.134;2022-12-07T12:53:16;5.80;92.80
1812;DHT22;904;47.814;11.134;2022-12-07T12:56:21;6.00;92.50
1812;DHT22;904;47.814;11.134;2022-12-07T12:59:25;6.20;92.20
1812;DHT22;904;47.814;11.134;2022-12-07T13:01:55;6.40;90.50
1812;DHT22;904;47.814;11.134;2022-12-07T13:04:39;6.50;88.70
1812;DHT22;904;47.814;11.134;2022-12-07T13:07:51;6.40;88.30
1812;DHT22;904;47.814;11.134;2022-12-07T13:10:44;6.40;87.70
1812;DHT22;904;47.814;11.134;2022-12-07T13:13:31;6.40;86.90
1812;DHT22;904;47.814;11.134;2022-12-07T13:16:38;6.50;86.70
1812;DHT22;904;47.814;11.134;2022-12-07T13:22:49;6.50;85.30
1812;DHT22;904;47.814;11.134;2022-12-07T13:25:41;6.50;85.20
1812;DHT22;904;47.814;11.134;2022-12-07T13:28:16;6.30;84.80
1812;DHT22;904;47.814;11.134;2022-12-07T13:30:59;6.20;84.80
1812;DHT22;904;47.814;11.134;2022-12-07T13:33:29;6.20;85.40
1812;DHT22;904;47.814;11.134;2022-12-07T13:35:57;6.10;86.00
1812;DHT22;904;47.814;11.134;2022-12-07T13:38:31;6.10;86.60
1812;DHT22;904;47.814;11.134;2022-12-07T13:41:10;6.20;87.40
1812;DHT22;904;47.814;11.134;2022-12-07T13:43:43;6.20;86.70
1812;DHT22;904;47.814;11.134;2022-12-07T13:46:11;6.20;86.60
1812;DHT22;904;47.814;11.134;2022-12-07T13:48:46;6.30;86.70
1812;DHT22;904;47.814;11.134;2022-12-07T13:51:24;6.30;86.00
1812;DHT22;904;47.814;11.134;2022-12-07T13:53:52;6.20;85.70
1812;DHT22;904;47.814;11.134;2022-12-07T13:56:22;6.20;85.30
1812;DHT22;904;47.814;11.134;2022-12-07T13:58:52;6.20;85.90
1812;DHT22;904;47.814;11.134;2022-12-07T14:01:20;6.20;86.20
1812;DHT22;904;47.814;11.134;2022-12-07T14:03:49;6.30;84.30
1812;DHT22;904;47.814;11.134;2022-12-07T14:06:24;6.20;83.90
1812;DHT22;904;47.814;11.134;2022-12-07T14:09:07;6.10;83.90
1812;DHT22;904;47.814;11.134;2022-12-07T14:11:34;6.00;84.40
1812;DHT22;904;47.814;11.134;2022-12-07T14:14:02;6.00;84.20
1812;DHT22;904;47.814;11.134;2022-12-07T14:16:31;6.00;84.70
1812;DHT22;904;47.814;11.134;2022-12-07T14:19:01;5.90;84.90
1812;DHT22;904;47.814;11.134;2022-12-07T14:21:34;5.90;85.10
1812;DHT22;904;47.814;11.134;2022-12-07T14:24:12;5.90;85.20
1812;DHT22;904;47.814;11.134;2022-12-07T14:26:40;5.80;85.60
1812;DHT22;904;47.814;11.134;2022-12-07T14:29:31;5.80;86.70
1812;DHT22;904;47.814;11.134;2022-12-07T14:32:04;5.70;86.90
1812;DHT22;904;47.814;11.134;2022-12-07T14:34:38;5.60;87.00
1812;DHT22;904;47.814;11.134;2022-12-07T14:37:07;5.50;87.70
1812;DHT22;904;47.814;11.134;2022-12-07T14:39:38;5.50;88.30
1812;DHT22;904;47.814;11.134;2022-12-07T14:42:07;5.40;87.70
1812;DHT22;904;47.814;11.134;2022-12-07T14:44:34;5.30;87.30
1812;DHT22;904;47.814;11.134;2022-12-07T14:47:01;5.30;88.00
1812;DHT22;904;47.814;11.134;2022-12-07T14:49:28;5.30;88.40
1812;DHT22;904;47.814;11.134;2022-12-07T14:51:59;5.30;87.50
1812;DHT22;904;47.814;11.134;2022-12-07T14:54:29;5.20;87.80
1812;DHT22;904;47.814;11.134;2022-12-07T14:56:56;5.20;88.30
1812;DHT22;904;47.814;11.134;2022-12-07T14:59:23;5.20;88.40
1812;DHT22;904;47.814;11.134;2022-12-07T15:01:54;5.20;88.60
1812;DHT22;904;47.814;11.134;2022-12-07T15:04:21;5.20;88.90
1812;DHT22;904;47.814;11.134;2022-12-07T15:06:57;5.20;89.20
1812;DHT22;904;47.814;11.134;2022-12-07T15:09:26;5.20;89.50
1812;DHT22;904;47.814;11.134;2022-12-07T15:11:53;5.10;89.40
1812;DHT22;904;47.814;11.134;2022-12-07T15:14:20;5.10;89.20
1812;DHT22;904;47.814;11.134;2022-12-07T15:16:47;5.10;89.30
1812;DHT22;904;47.814;11.134;2022-12-07T15:19:15;5.10;89.70
1812;DHT22;904;47.814;11.134;2022-12-07T15:21:43;5.10;89.70
1812;DHT22;904;47.814;11.134;2022-12-07T15:24:12;5.00;89.60
1812;DHT22;904;47.814;11.134;2022-12-07T15:26:39;5.00;89.60
1812;DHT22;904;47.814;11.134;2022-12-07T15:29:07;5.00;89.80
1812;DHT22;904;47.814;11.134;2022-12-07T15:31:35;5.00;90.00
1812;DHT22;904;47.814;11.134;2022-12-07T15:34:04;5.00;90.20
1812;DHT22;904;47.814;11.134;2022-12-07T15:36:32;5.00;90.20
1812;DHT22;904;47.814;11.134;2022-12-07T15:39:00;5.10;90.40
1812;DHT22;904;47.814;11.134;2022-12-07T15:41:29;5.10;90.40
1812;DHT22;904;47.814;11.134;2022-12-07T15:43:57;5.10;90.50
1812;DHT22;904;47.814;11.134;2022-12-07T15:46:43;5.10;90.50
1812;DHT22;904;47.814;11.134;2022-12-07T15:49:17;5.10;90.50
1812;DHT22;904;47.814;11.134;2022-12-07T15:51:45;5.10;90.60
1812;DHT22;904;47.814;11.134;2022-12-07T15:54:14;5.10;90.50
1812;DHT22;904;47.814;11.134;2022-12-07T15:56:44;5.10;90.60
1812;DHT22;904;47.814;11.134;2022-12-07T15:59:11;5.20;90.70
1812;DHT22;904;47.814;11.134;2022-12-07T16:01:38;5.20;90.60
1812;DHT22;904;47.814;11.134;2022-12-07T16:04:05;5.20;90.60
1812;DHT22;904;47.814;11.134;2022-12-07T16:06:32;5.10;90.50
1812;DHT22;904;47.814;11.134;2022-12-07T16:08:59;5.10;90.60
1812;DHT22;904;47.814;11.134;2022-12-07T16:11:31;5.00;90.70
1812;DHT22;904;47.814;11.134;2022-12-07T16:14:00;5.00;90.80
1812;DHT22;904;47.814;11.134;2022-12-07T16:16:27;4.90;90.90
1812;DHT22;904;47.814;11.134;2022-12-07T16:18:55;4.90;91.00
1812;DHT22;904;47.814;11.134;2022-12-07T16:21:25;4.70;91.20
1812;DHT22;904;47.814;11.134;2022-12-07T16:23:57;4.70;91.20
1812;DHT22;904;47.814;11.134;2022-12-07T16:26:24;4.70;91.40
1812;DHT22;904;47.814;11.134;2022-12-07T16:28:52;4.70;91.40
1812;DHT22;904;47.814;11.134;2022-12-07T16:31:23;4.70;91.60
1812;DHT22;904;47.814;11.134;2022-12-07T16:33:53;4.70;91.90
1812;DHT22;904;47.814;11.134;2022-12-07T16:36:21;4.70;92.40
1812;DHT22;904;47.814;11.134;2022-12-07T16:38:50;4.80;92.10
1812;DHT22;904;47.814;11.134;2022-12-07T16:41:17;4.80;92.30
1812;DHT22;904;47.814;11.134;2022-12-07T16:43:45;4.70;92.10
1812;DHT22;904;47.814;11.134;2022-12-07T16:46:12;4.70;92.30
1812;DHT22;904;47.814;11.134;2022-12-07T16:48:42;4.70;92.30
1812;DHT22;904;47.814;11.134;2022-12-07T16:51:10;4.80;92.10
1812;DHT22;904;47.814;11.134;2022-12-07T16:53:42;4.80;92.30
1812;DHT22;904;47.814;11.134;2022-12-07T16:56:11;4.80;92.30
1812;DHT22;904;47.814;11.134;2022-12-07T16:58:38;4.80;92.20